createdAt,value
2018-08-22T06:00:42.284Z,999.4
2018-08-22T06:01:02.430Z,999.4
2018-08-22T06:01:22.591Z,999.4
2018-08-22T06:01:42.813Z,999.4
2018-08-22T06:02:03.100Z,999.4
2018-08-22T06:02:23.362Z,999.4
2018-08-22T06:02:43.520Z,999.4
2018-08-22T06:03:03.704Z,999.4
2018-08-22T06:03:24.059Z,999.4
2018-08-22T06:03:44.204Z,999.4
2018-08-22T06:04:04.487Z,999.4
2018-08-22T06:04:24.701Z,999.4
2018-08-22T06:04:44.839Z,999.4
2018-08-22T06:05:05.146Z,999.4
2018-08-22T06:05:25.427Z,999.4
2018-08-22T06:05:45.597Z,999.4
2018-08-22T06:06:05.793Z,999.4
2018-08-22T06:06:26.010Z,999.4
2018-08-22T06:06:46.365Z,999.4
2018-08-22T06:07:06.618Z,999.4
2018-08-22T06:07:26.915Z,999.5
2018-08-22T06:07:47.133Z,999.5
2018-08-22T06:08:07.276Z,999.4
2018-08-22T06:08:27.432Z,999.4
2018-08-22T06:08:47.591Z,999.5
2018-08-22T06:09:07.819Z,999.5
2018-08-22T06:09:28.055Z,999.5
2018-08-22T06:09:48.214Z,999.5
2018-08-22T06:10:08.380Z,999.4
2018-08-22T06:10:28.552Z,999.5
2018-08-22T06:10:48.781Z,999.4
2018-08-22T06:11:08.964Z,999.5
2018-08-22T06:11:29.225Z,999.5
2018-08-22T06:11:49.412Z,999.5
2018-08-22T06:12:09.617Z,999.5
2018-08-22T06:12:29.867Z,999.5
2018-08-22T06:12:50.060Z,999.5
2018-08-22T06:13:10.277Z,999.5
2018-08-22T06:13:30.521Z,999.5
2018-08-22T06:13:50.740Z,999.5
2018-08-22T06:14:10.884Z,999.5
2018-08-22T06:14:31.056Z,999.5
2018-08-22T06:14:51.242Z,999.5
2018-08-22T06:15:11.574Z,999.5
2018-08-22T06:15:31.841Z,999.5
2018-08-22T06:15:52.088Z,999.5
2018-08-22T06:16:12.388Z,999.4
2018-08-22T06:16:32.568Z,999.4
2018-08-22T06:16:52.745Z,999.4
2018-08-22T06:17:12.910Z,999.4
2018-08-22T06:17:33.149Z,999.4
2018-08-22T06:17:53.981Z,999.4
2018-08-22T06:18:14.144Z,999.4
2018-08-22T06:18:34.300Z,999.4
2018-08-22T06:18:54.530Z,999.4
2018-08-22T06:19:14.739Z,999.4
2018-08-22T06:19:34.910Z,999.4
2018-08-22T06:19:55.134Z,999.4
2018-08-22T06:20:15.395Z,999.4
2018-08-22T06:20:35.611Z,999.4
2018-08-22T06:20:55.839Z,999.4
2018-08-22T06:21:16.028Z,999.4
2018-08-22T06:21:36.250Z,999.4
2018-08-22T06:21:56.516Z,999.4
2018-08-22T06:22:16.721Z,999.4
2018-08-22T06:22:36.952Z,999.4
2018-08-22T06:22:57.138Z,999.4
2018-08-22T06:23:17.333Z,999.4
2018-08-22T06:23:37.582Z,999.4
2018-08-22T06:23:57.768Z,999.4
2018-08-22T06:24:17.963Z,999.4
2018-08-22T06:24:38.293Z,999.5
2018-08-22T06:24:58.473Z,999.4
2018-08-22T06:25:18.636Z,999.4
2018-08-22T06:25:38.888Z,999.4
2018-08-22T06:25:59.023Z,999.4
2018-08-22T06:26:19.264Z,999.4
2018-08-22T06:26:39.495Z,999.4
2018-08-22T06:26:59.756Z,999.4
2018-08-22T06:27:19.988Z,999.4
2018-08-22T06:27:40.222Z,999.4
2018-08-22T06:28:00.383Z,999.4
2018-08-22T06:28:20.625Z,999.4
2018-08-22T06:28:40.874Z,999.4
2018-08-22T06:29:01.094Z,999.4
2018-08-22T06:29:21.308Z,999.4
2018-08-22T06:29:41.635Z,999.4
2018-08-22T06:30:01.809Z,999.4
2018-08-22T06:30:22.016Z,999.4
2018-08-22T06:30:42.275Z,999.4
2018-08-22T06:31:02.469Z,999.4
2018-08-22T06:31:22.653Z,999.4
2018-08-22T06:31:42.931Z,999.4
2018-08-22T06:32:03.168Z,999.4
2018-08-22T06:32:23.389Z,999.4
2018-08-22T06:32:43.618Z,999.4
2018-08-22T06:33:03.876Z,999.4
2018-08-22T06:33:24.100Z,999.4
2018-08-22T06:33:44.469Z,999.4
2018-08-22T06:34:04.748Z,999.4
2018-08-22T06:34:24.935Z,999.4
2018-08-22T06:34:45.073Z,999.4
2018-08-22T06:35:05.290Z,999.4
2018-08-22T06:35:25.523Z,999.4
2018-08-22T06:35:45.740Z,999.4
2018-08-22T06:36:05.980Z,999.4
2018-08-22T06:36:26.411Z,999.4
2018-08-22T06:36:46.462Z,999.4
2018-08-22T06:37:06.715Z,999.4
2018-08-22T06:37:26.919Z,999.4
2018-08-22T06:37:47.132Z,999.4
2018-08-22T06:38:07.321Z,999.4
2018-08-22T06:38:27.518Z,999.4
2018-08-22T06:38:47.785Z,999.4
2018-08-22T06:39:07.969Z,999.3
2018-08-22T06:39:28.165Z,999.4
2018-08-22T06:39:48.452Z,999.4
2018-08-22T06:40:08.710Z,999.3
2018-08-22T06:40:28.881Z,999.3
2018-08-22T06:40:49.128Z,999.3
2018-08-22T06:41:09.330Z,999.3
2018-08-22T06:41:29.565Z,999.3
2018-08-22T06:41:49.764Z,999.4
2018-08-22T06:42:09.967Z,999.4
2018-08-22T06:42:30.188Z,999.3
2018-08-22T06:42:50.394Z,999.3
2018-08-22T06:43:10.565Z,999.4
2018-08-22T06:43:30.734Z,999.4
2018-08-22T06:43:50.949Z,999.3
2018-08-22T06:44:11.195Z,999.4
2018-08-22T06:44:31.416Z,999.4
2018-08-22T06:44:51.612Z,999.3
2018-08-22T06:45:11.834Z,999.3
2018-08-22T06:45:32.015Z,999.3
2018-08-22T06:45:52.200Z,999.4
2018-08-22T06:46:12.352Z,999.3
2018-08-22T06:46:32.563Z,999.3
2018-08-22T06:46:52.826Z,999.4
2018-08-22T06:47:13.012Z,999.3
2018-08-22T06:47:33.238Z,999.3
2018-08-22T06:47:53.449Z,999.3
2018-08-22T06:48:13.757Z,999.4
2018-08-22T06:48:34.876Z,999.3
2018-08-22T06:48:55.110Z,999.3
2018-08-22T06:49:15.304Z,999.3
2018-08-22T06:49:35.443Z,999.3
2018-08-22T06:49:55.617Z,999.3
2018-08-22T06:50:15.875Z,999.3
2018-08-22T06:50:36.673Z,999.3
2018-08-22T06:50:56.914Z,999.3
2018-08-22T06:51:17.117Z,999.3
2018-08-22T06:51:37.312Z,999.3
2018-08-22T06:51:57.450Z,999.3
2018-08-22T06:52:18.989Z,999.3
2018-08-22T06:52:39.261Z,999.3
2018-08-22T06:52:59.463Z,999.3
2018-08-22T06:53:19.648Z,999.3
2018-08-22T06:53:39.834Z,999.3
2018-08-22T06:54:00.050Z,999.3
2018-08-22T06:54:20.238Z,999.3
2018-08-22T06:54:40.514Z,999.3
2018-08-22T06:55:00.708Z,999.3
2018-08-22T06:55:20.987Z,999.3
2018-08-22T06:55:41.731Z,999.3
2018-08-22T06:56:01.950Z,999.3
2018-08-22T06:56:22.201Z,999.3
2018-08-22T06:56:42.409Z,999.3
2018-08-22T06:57:02.683Z,999.3
2018-08-22T06:57:23.086Z,999.3
2018-08-22T06:57:43.388Z,999.3
2018-08-22T06:58:04.869Z,999.3
2018-08-22T06:58:26.435Z,999.3
2018-08-22T06:58:46.626Z,999.3
2018-08-22T06:59:06.777Z,999.3
2018-08-22T06:59:27.077Z,999.3
2018-08-22T06:59:47.340Z,999.3
2018-08-22T07:00:07.578Z,999.3
2018-08-22T07:00:27.831Z,999.2
2018-08-22T07:00:48.034Z,999.2
2018-08-22T07:01:08.999Z,999.2
2018-08-22T07:01:29.248Z,999.3
2018-08-22T07:01:49.478Z,999.2
2018-08-22T07:02:09.679Z,999.2
2018-08-22T07:02:29.962Z,999.2
2018-08-22T07:02:50.916Z,999.2
2018-08-22T07:03:11.174Z,999.2
2018-08-22T07:03:31.454Z,999.2
2018-08-22T07:03:51.719Z,999.2
2018-08-22T07:04:11.936Z,999.2
2018-08-22T07:04:32.237Z,999.2
2018-08-22T07:04:52.513Z,999.2
2018-08-22T07:05:12.752Z,999.2
2018-08-22T07:05:32.986Z,999.2
2018-08-22T07:05:53.231Z,999.2
2018-08-22T07:06:13.523Z,999.3
2018-08-22T07:06:34.427Z,999.3
2018-08-22T07:06:54.684Z,999.2
2018-08-22T07:07:14.939Z,999.2
2018-08-22T07:07:35.113Z,999.2
2018-08-22T07:07:57.274Z,999.3
2018-08-22T07:08:17.472Z,999.2
2018-08-22T07:08:37.678Z,999.2
2018-08-22T07:08:57.878Z,999.3
2018-08-22T07:09:19.570Z,999.3
2018-08-22T07:09:39.848Z,999.2
2018-08-22T07:10:00.056Z,999.2
2018-08-22T07:10:21.039Z,999.3
2018-08-22T07:10:41.289Z,999.3
2018-08-22T07:11:01.466Z,999.2
2018-08-22T07:11:21.667Z,999.3
2018-08-22T07:11:41.848Z,999.3
2018-08-22T07:12:02.072Z,999.3
2018-08-22T07:12:22.202Z,999.2
2018-08-22T07:12:42.426Z,999.2
2018-08-22T07:13:02.619Z,999.2
2018-08-22T07:13:22.785Z,999.3
2018-08-22T07:13:42.918Z,999.3
2018-08-22T07:14:03.212Z,999.2
2018-08-22T07:14:23.428Z,999.2
2018-08-22T07:14:44.591Z,999.2
2018-08-22T07:15:04.827Z,999.2
2018-08-22T07:15:25.049Z,999.2
2018-08-22T07:15:45.978Z,999.2
2018-08-22T07:16:06.130Z,999.2
2018-08-22T07:16:26.304Z,999.3
2018-08-22T07:16:46.489Z,999.2
2018-08-22T07:17:08.057Z,999.2
2018-08-22T07:17:28.284Z,999.2
2018-08-22T07:17:48.529Z,999.3
2018-08-22T07:18:08.813Z,999.3
2018-08-22T07:18:29.530Z,999.2
2018-08-22T07:18:49.750Z,999.2
2018-08-22T07:19:09.925Z,999.2
2018-08-22T07:19:30.099Z,999.2
2018-08-22T07:19:50.337Z,999.2
2018-08-22T07:20:10.572Z,999.2
2018-08-22T07:20:30.833Z,999.3
2018-08-22T07:20:51.104Z,999.2
2018-08-22T07:21:11.334Z,999.2
2018-08-22T07:21:31.585Z,999.2
2018-08-22T07:21:51.786Z,999.2
2018-08-22T07:22:11.978Z,999.2
2018-08-22T07:22:32.677Z,999.2
2018-08-22T07:22:52.887Z,999.2
2018-08-22T07:23:13.135Z,999.2
2018-08-22T07:23:33.441Z,999.2
2018-08-22T07:23:53.880Z,999.2
2018-08-22T07:24:14.102Z,999.2
2018-08-22T07:24:34.285Z,999.2
2018-08-22T07:24:54.983Z,999.2
2018-08-22T07:25:15.212Z,999.2
2018-08-22T07:25:35.400Z,999.2
2018-08-22T07:25:55.578Z,999.2
2018-08-22T07:26:15.738Z,999.2
2018-08-22T07:26:35.997Z,999.2
2018-08-22T07:26:56.201Z,999.2
2018-08-22T07:27:16.413Z,999.2
2018-08-22T07:27:36.656Z,999.2
2018-08-22T07:27:56.904Z,999.1
2018-08-22T07:28:17.061Z,999.2
2018-08-22T07:28:37.280Z,999.2
2018-08-22T07:28:57.495Z,999.1
2018-08-22T07:29:17.661Z,999.2
2018-08-22T07:29:37.948Z,999.1
2018-08-22T07:29:58.296Z,999.2
2018-08-22T07:30:18.625Z,999.1
2018-08-22T07:30:38.794Z,999.1
2018-08-22T07:30:58.981Z,999.2
2018-08-22T07:31:19.993Z,999.2
2018-08-22T07:31:40.244Z,999.1
2018-08-22T07:32:00.458Z,999.1
2018-08-22T07:32:21.284Z,999.1
2018-08-22T07:32:41.575Z,999.1
2018-08-22T07:33:01.872Z,999.2
2018-08-22T07:33:22.121Z,999.1
2018-08-22T07:33:42.394Z,999.1
2018-08-22T07:34:02.604Z,999.1
2018-08-22T07:34:22.906Z,999.1
2018-08-22T07:34:43.729Z,999.2
2018-08-22T07:35:03.998Z,999.1
2018-08-22T07:35:24.238Z,999.1
2018-08-22T07:35:44.536Z,999.1
2018-08-22T07:36:04.724Z,999.1
2018-08-22T07:36:24.924Z,999.1
2018-08-22T07:36:45.179Z,999.1
2018-08-22T07:37:05.408Z,999.1
2018-08-22T07:37:25.607Z,999.1
2018-08-22T07:37:46.685Z,999.1
2018-08-22T07:38:06.919Z,999.2
2018-08-22T07:38:27.985Z,999.2
2018-08-22T07:38:48.163Z,999.1
2018-08-22T07:39:08.386Z,999.2
2018-08-22T07:39:29.111Z,999.2
2018-08-22T07:39:49.276Z,999.1
2018-08-22T07:40:09.548Z,999.1
2018-08-22T07:40:29.720Z,999.2
2018-08-22T07:40:49.897Z,999.2
2018-08-22T07:41:11.008Z,999.2
2018-08-22T07:41:31.226Z,999.1
2018-08-22T07:41:52.175Z,999.2
2018-08-22T07:42:12.451Z,999.2
2018-08-22T07:42:33.589Z,999.1
2018-08-22T07:42:53.764Z,999.1
2018-08-22T07:43:13.976Z,999.2
2018-08-22T07:43:35.650Z,999.1
2018-08-22T07:43:55.926Z,999.2
2018-08-22T07:44:16.158Z,999.2
2018-08-22T07:44:36.434Z,999.1
2018-08-22T07:44:56.707Z,999.2
2018-08-22T07:45:16.983Z,999.2
2018-08-22T07:45:38.056Z,999.1
2018-08-22T07:45:58.294Z,999.1
2018-08-22T07:46:18.459Z,999.2
2018-08-22T07:46:38.712Z,999.2
2018-08-22T07:46:59.038Z,999.1
2018-08-22T07:47:19.237Z,999.1
2018-08-22T07:47:39.569Z,999.1
2018-08-22T07:47:59.829Z,999.1
2018-08-22T07:48:20.145Z,999.1
2018-08-22T07:48:40.468Z,999.1
2018-08-22T07:49:01.635Z,999.1
2018-08-22T07:49:21.918Z,999.1
2018-08-22T07:49:42.162Z,999.1
2018-08-22T07:50:02.392Z,999.1
2018-08-22T07:50:22.732Z,999.1
2018-08-22T07:50:42.937Z,999.1
2018-08-22T07:51:03.196Z,999.1
2018-08-22T07:51:23.464Z,999.1
2018-08-22T07:51:43.813Z,999.1
2018-08-22T07:52:04.103Z,999.1
2018-08-22T07:52:24.322Z,999.1
2018-08-22T07:52:44.547Z,999.1
2018-08-22T07:53:04.798Z,999.1
2018-08-22T07:53:25.130Z,999.1
2018-08-22T07:53:45.275Z,999.1
2018-08-22T07:54:05.476Z,999.1
2018-08-22T07:54:25.690Z,999.1
2018-08-22T07:54:45.937Z,999.1
2018-08-22T07:55:07.196Z,999.1
2018-08-22T07:55:27.790Z,999.1
2018-08-22T07:55:48.018Z,999.1
2018-08-22T07:56:08.327Z,999.1
2018-08-22T07:56:28.529Z,999.1
2018-08-22T07:56:48.824Z,999.1
2018-08-22T07:57:09.063Z,999.1
2018-08-22T07:57:29.279Z,999.1
2018-08-22T07:57:49.563Z,999.1
2018-08-22T07:58:10.751Z,999.1
2018-08-22T07:58:31.000Z,999.1
2018-08-22T07:58:51.288Z,999
2018-08-22T07:59:11.609Z,999.1
2018-08-22T07:59:31.926Z,999.1
2018-08-22T07:59:52.166Z,999
2018-08-22T08:00:12.467Z,999.1
2018-08-22T08:00:32.649Z,999.1
2018-08-22T08:00:52.881Z,999
2018-08-22T08:01:12.990Z,999.1
2018-08-22T08:01:34.750Z,999
2018-08-22T08:01:55.880Z,999.1
2018-08-22T08:02:16.012Z,999
2018-08-22T08:02:36.240Z,999.1
2018-08-22T08:02:56.420Z,999
2018-08-22T08:03:17.634Z,999
2018-08-22T08:03:38.054Z,999
2018-08-22T08:03:59.456Z,999
2018-08-22T08:04:19.734Z,999
2018-08-22T08:04:39.886Z,999
2018-08-22T08:05:00.067Z,999.1
2018-08-22T08:05:20.281Z,999.1
2018-08-22T08:05:40.536Z,999.1
2018-08-22T08:06:00.803Z,999
2018-08-22T08:06:20.998Z,999.1
2018-08-22T08:06:41.886Z,999.1
2018-08-22T08:07:02.092Z,999
2018-08-22T08:07:22.284Z,999
2018-08-22T08:07:42.454Z,999
2018-08-22T08:08:02.696Z,999.1
2018-08-22T08:08:22.858Z,999.1
2018-08-22T08:08:43.324Z,999
2018-08-22T08:09:03.458Z,999.1
2018-08-22T08:09:24.393Z,999
2018-08-22T08:09:44.620Z,999
2018-08-22T08:10:04.829Z,999
2018-08-22T08:10:25.151Z,999
2018-08-22T08:10:45.598Z,999
2018-08-22T08:11:06.018Z,999
2018-08-22T08:11:26.257Z,999.1
2018-08-22T08:11:46.531Z,999.1
2018-08-22T08:12:06.816Z,999
2018-08-22T08:12:27.025Z,999
2018-08-22T08:12:47.302Z,999
2018-08-22T08:13:07.519Z,999
2018-08-22T08:13:28.376Z,999
2018-08-22T08:13:48.647Z,999
2018-08-22T08:14:09.022Z,999
2018-08-22T08:14:29.573Z,999
2018-08-22T08:14:49.748Z,999
2018-08-22T08:15:10.035Z,999
2018-08-22T08:15:30.284Z,999
2018-08-22T08:15:50.454Z,999
2018-08-22T08:16:10.605Z,999
2018-08-22T08:16:30.975Z,999
2018-08-22T08:16:51.244Z,999
2018-08-22T08:17:11.707Z,999
2018-08-22T08:17:31.832Z,998.9
2018-08-22T08:17:52.746Z,998.9
2018-08-22T08:18:13.002Z,998.9
2018-08-22T08:18:33.212Z,999
2018-08-22T08:18:53.453Z,999
2018-08-22T08:19:13.668Z,999
2018-08-22T08:19:33.826Z,999
2018-08-22T08:19:53.993Z,998.9
2018-08-22T08:20:14.782Z,999
2018-08-22T08:20:35.717Z,998.9
2018-08-22T08:20:55.906Z,998.9
2018-08-22T08:21:16.149Z,998.9
2018-08-22T08:21:36.898Z,999
2018-08-22T08:21:57.137Z,998.9
2018-08-22T08:22:17.334Z,998.9
2018-08-22T08:22:37.541Z,998.9
2018-08-22T08:22:57.744Z,999
2018-08-22T08:23:17.994Z,998.9
2018-08-22T08:23:38.761Z,998.9
2018-08-22T08:23:59.074Z,998.9
2018-08-22T08:24:19.296Z,998.9
2018-08-22T08:24:39.651Z,998.9
2018-08-22T08:25:00.741Z,998.9
2018-08-22T08:25:20.927Z,998.9
2018-08-22T08:25:42.382Z,998.9
2018-08-22T08:26:02.836Z,998.9
2018-08-22T08:26:23.115Z,998.9
2018-08-22T08:26:44.842Z,998.9
2018-08-22T08:27:05.149Z,998.9
2018-08-22T08:27:25.551Z,998.9
2018-08-22T08:27:45.881Z,998.9
2018-08-22T08:28:06.238Z,998.9
2018-08-22T08:28:26.521Z,998.9
2018-08-22T08:28:46.676Z,998.9
2018-08-22T08:29:06.876Z,998.8
2018-08-22T08:29:27.114Z,998.8
2018-08-22T08:29:48.008Z,998.8
2018-08-22T08:30:08.144Z,998.8
2018-08-22T08:30:28.506Z,998.9
2018-08-22T08:30:48.737Z,998.8
2018-08-22T08:31:09.034Z,998.8
2018-08-22T08:31:29.383Z,998.8
2018-08-22T08:31:49.761Z,998.8
2018-08-22T08:32:10.015Z,998.8
2018-08-22T08:32:30.296Z,998.8
2018-08-22T08:32:50.740Z,998.8
2018-08-22T08:33:11.100Z,998.8
2018-08-22T08:33:31.367Z,998.8
2018-08-22T08:33:52.412Z,998.8
2018-08-22T08:34:12.585Z,998.8
2018-08-22T08:34:32.864Z,998.8
2018-08-22T08:34:53.124Z,998.8
2018-08-22T08:35:13.414Z,998.8
2018-08-22T08:35:33.685Z,998.8
2018-08-22T08:35:54.036Z,998.8
2018-08-22T08:36:14.602Z,998.8
2018-08-22T08:36:34.723Z,998.8
2018-08-22T08:36:55.901Z,998.8
2018-08-22T08:37:16.821Z,998.7
2018-08-22T08:37:37.911Z,998.7
2018-08-22T08:37:58.216Z,998.7
2018-08-22T08:38:18.446Z,998.7
2018-08-22T08:38:38.869Z,998.7
2018-08-22T08:38:59.959Z,998.7
2018-08-22T08:39:20.287Z,998.7
2018-08-22T08:39:40.494Z,998.7
2018-08-22T08:40:00.746Z,998.7
2018-08-22T08:40:20.975Z,998.7
2018-08-22T08:40:42.045Z,998.7
2018-08-22T08:41:02.279Z,998.7
2018-08-22T08:41:22.518Z,998.7
2018-08-22T08:41:42.814Z,998.7
2018-08-22T08:42:02.949Z,998.7
2018-08-22T08:42:23.182Z,998.7
2018-08-22T08:42:43.394Z,998.7
2018-08-22T08:43:04.235Z,998.7
2018-08-22T08:43:24.581Z,998.7
2018-08-22T08:43:44.761Z,998.7
2018-08-22T08:44:04.993Z,998.7
2018-08-22T08:44:25.203Z,998.7
2018-08-22T08:44:45.391Z,998.7
2018-08-22T08:45:05.601Z,998.7
2018-08-22T08:45:25.992Z,998.6
2018-08-22T08:45:46.182Z,998.7
2018-08-22T08:46:06.514Z,998.7
2018-08-22T08:46:26.833Z,998.6
2018-08-22T08:46:47.110Z,998.7
2018-08-22T08:47:07.390Z,998.6
2018-08-22T08:47:27.735Z,998.6
2018-08-22T08:47:48.018Z,998.6
2018-08-22T08:48:08.963Z,998.6
2018-08-22T08:48:29.206Z,998.6
2018-08-22T08:48:49.452Z,998.6
2018-08-22T08:49:09.684Z,998.6
2018-08-22T08:49:30.040Z,998.6
2018-08-22T08:49:50.289Z,998.6
2018-08-22T08:50:10.465Z,998.6
2018-08-22T08:50:31.553Z,998.6
2018-08-22T08:50:51.749Z,998.6
2018-08-22T08:51:11.998Z,998.6
2018-08-22T08:51:32.202Z,998.6
2018-08-22T08:51:52.442Z,998.6
2018-08-22T08:52:12.625Z,998.6
2018-08-22T08:52:32.874Z,998.6
2018-08-22T08:52:53.192Z,998.6
2018-08-22T08:53:13.520Z,998.6
2018-08-22T08:53:33.688Z,998.5
2018-08-22T08:53:54.076Z,998.6
2018-08-22T08:54:14.302Z,998.6
2018-08-22T08:54:34.615Z,998.5
2018-08-22T08:54:55.345Z,998.5
2018-08-22T08:55:15.569Z,998.5
2018-08-22T08:55:35.778Z,998.5
2018-08-22T08:55:56.033Z,998.5
2018-08-22T08:56:16.288Z,998.5
2018-08-22T08:56:36.550Z,998.5
2018-08-22T08:56:56.827Z,998.5
2018-08-22T08:57:17.336Z,998.5
2018-08-22T08:57:37.626Z,998.5
2018-08-22T08:57:57.829Z,998.4
2018-08-22T08:58:18.053Z,998.5
2018-08-22T08:58:38.297Z,998.4
2018-08-22T08:58:58.478Z,998.4
2018-08-22T08:59:18.799Z,998.4
2018-08-22T08:59:39.973Z,998.4
2018-08-22T09:00:00.338Z,998.4
2018-08-22T09:00:20.608Z,998.4
2018-08-22T09:00:40.934Z,998.4
2018-08-22T09:01:01.202Z,998.5
2018-08-22T09:01:21.473Z,998.5
2018-08-22T09:01:41.732Z,998.5
2018-08-22T09:02:02.870Z,998.4
2018-08-22T09:02:23.121Z,998.4
2018-08-22T09:02:43.417Z,998.4
2018-08-22T09:03:03.607Z,998.4
2018-08-22T09:03:23.916Z,998.4
2018-08-22T09:03:44.308Z,998.4
2018-08-22T09:04:04.700Z,998.4
2018-08-22T09:04:25.118Z,998.4
2018-08-22T09:04:45.346Z,998.4
2018-08-22T09:05:05.631Z,998.3
2018-08-22T09:05:25.897Z,998.3
2018-08-22T09:05:46.104Z,998.4
2018-08-22T09:06:06.311Z,998.4
2018-08-22T09:06:26.544Z,998.4
2018-08-22T09:06:46.860Z,998.4
2018-08-22T09:07:07.128Z,998.4
2018-08-22T09:07:27.469Z,998.4
2018-08-22T09:07:47.913Z,998.4
2018-08-22T09:08:08.136Z,998.4
2018-08-22T09:08:28.411Z,998.4
2018-08-22T09:08:48.609Z,998.4
2018-08-22T09:09:08.879Z,998.4
2018-08-22T09:09:29.276Z,998.4
2018-08-22T09:09:49.546Z,998.4
2018-08-22T09:10:09.925Z,998.4
2018-08-22T09:10:30.201Z,998.4
2018-08-22T09:10:50.590Z,998.4
2018-08-22T09:11:10.985Z,998.4
2018-08-22T09:11:31.308Z,998.4
2018-08-22T09:11:51.581Z,998.4
2018-08-22T09:12:12.626Z,998.4
2018-08-22T09:12:32.770Z,998.4
2018-08-22T09:12:52.995Z,998.3
2018-08-22T09:13:13.200Z,998.3
2018-08-22T09:13:33.384Z,998.3
2018-08-22T09:13:53.647Z,998.3
2018-08-22T09:14:13.898Z,998.4
2018-08-22T09:14:34.240Z,998.3
2018-08-22T09:15:15.878Z,998.3
2018-08-22T09:15:36.207Z,998.3
2018-08-22T09:15:56.499Z,998.3
2018-08-22T09:16:16.696Z,998.3
2018-08-22T09:16:36.951Z,998.3
2018-08-22T09:16:57.157Z,998.3
2018-08-22T09:17:17.452Z,998.3
2018-08-22T09:17:37.754Z,998.3
2018-08-22T09:17:58.000Z,998.3
2018-08-22T09:18:18.812Z,998.3
2018-08-22T09:18:39.047Z,998.3
2018-08-22T09:18:59.306Z,998.3
2018-08-22T09:19:19.533Z,998.3
2018-08-22T09:19:39.772Z,998.3
2018-08-22T09:20:00.020Z,998.3
2018-08-22T09:20:20.205Z,998.3
2018-08-22T09:20:40.386Z,998.3
2018-08-22T09:21:00.673Z,998.3
2018-08-22T09:21:22.037Z,998.3
2018-08-22T09:21:42.240Z,998.3
2018-08-22T09:22:02.544Z,998.3
2018-08-22T09:22:22.806Z,998.2
2018-08-22T09:22:43.031Z,998.3
2018-08-22T09:23:03.320Z,998.3
2018-08-22T09:23:23.618Z,998.3
2018-08-22T09:23:43.896Z,998.2
2018-08-22T09:24:04.166Z,998.3
2018-08-22T09:24:24.437Z,998.2
2018-08-22T09:24:44.639Z,998.2
2018-08-22T09:25:04.908Z,998.2
2018-08-22T09:25:25.162Z,998.2
2018-08-22T09:25:45.439Z,998.2
2018-08-22T09:26:05.698Z,998.2
2018-08-22T09:26:25.931Z,998.3
2018-08-22T09:26:46.155Z,998.2
2018-08-22T09:27:06.501Z,998.2
2018-08-22T09:27:26.804Z,998.2
2018-08-22T09:27:47.110Z,998.2
2018-08-22T09:28:07.419Z,998.2
2018-08-22T09:28:28.426Z,998.2
2018-08-22T09:28:48.741Z,998.2
2018-08-22T09:29:09.004Z,998.2
2018-08-22T09:29:29.380Z,998.2
2018-08-22T09:29:49.578Z,998.2
2018-08-22T09:30:09.839Z,998.2
2018-08-22T09:30:30.127Z,998.2
2018-08-22T09:30:50.383Z,998.2
2018-08-22T09:31:10.645Z,998.2
2018-08-22T09:31:30.891Z,998.2
2018-08-22T09:31:51.109Z,998.2
2018-08-22T09:32:11.438Z,998.2
2018-08-22T09:32:34.590Z,998.2
2018-08-22T09:32:54.872Z,998.2
2018-08-22T09:33:15.124Z,998.2
2018-08-22T09:33:35.406Z,998.2
2018-08-22T09:33:55.639Z,998.2
2018-08-22T09:34:15.885Z,998.1
2018-08-22T09:34:36.158Z,998.1
2018-08-22T09:34:56.315Z,998.1
2018-08-22T09:35:16.531Z,998.1
2018-08-22T09:35:36.754Z,998.1
2018-08-22T09:35:56.983Z,998.1
2018-08-22T09:36:17.146Z,998.1
2018-08-22T09:36:37.296Z,998.1
2018-08-22T09:36:57.669Z,998.1
2018-08-22T09:37:17.979Z,998.1
2018-08-22T09:37:38.216Z,998.1
2018-08-22T09:37:58.960Z,998.1
2018-08-22T09:38:19.228Z,998.1
2018-08-22T09:38:40.914Z,998.1
2018-08-22T09:39:01.221Z,998.1
2018-08-22T09:39:21.541Z,998.1
2018-08-22T09:39:41.752Z,998.1
2018-08-22T09:40:02.050Z,998.1
2018-08-22T09:40:22.913Z,998.1
2018-08-22T09:40:43.130Z,998.1
2018-08-22T09:41:03.332Z,998.1
2018-08-22T09:41:24.748Z,998
2018-08-22T09:41:45.017Z,998
2018-08-22T09:42:05.372Z,998
2018-08-22T09:42:25.594Z,998
2018-08-22T09:42:45.785Z,998
2018-08-22T09:43:06.993Z,998
2018-08-22T09:43:27.328Z,998
2018-08-22T09:43:47.541Z,998
2018-08-22T09:44:07.760Z,998
2018-08-22T09:44:27.992Z,998
2018-08-22T09:44:48.209Z,998
2018-08-22T09:45:08.453Z,998
2018-08-22T09:45:28.662Z,998
2018-08-22T09:45:48.881Z,997.9
2018-08-22T09:46:09.833Z,998
2018-08-22T09:46:30.085Z,998
2018-08-22T09:46:50.386Z,998
2018-08-22T09:47:10.559Z,998
2018-08-22T09:47:30.721Z,998
2018-08-22T09:47:51.030Z,998
2018-08-22T09:48:11.293Z,998
2018-08-22T09:48:32.217Z,997.9
2018-08-22T09:48:52.415Z,998
2018-08-22T09:49:12.723Z,998
2018-08-22T09:49:32.971Z,998
2018-08-22T09:49:53.263Z,998
2018-08-22T09:50:13.544Z,997.9
2018-08-22T09:50:34.181Z,998
2018-08-22T09:50:54.681Z,998
2018-08-22T09:51:14.973Z,997.9
2018-08-22T09:51:35.259Z,997.9
2018-08-22T09:51:55.557Z,997.9
2018-08-22T09:52:15.829Z,997.9
2018-08-22T09:52:36.515Z,997.9
2018-08-22T09:52:57.376Z,997.9
2018-08-22T09:53:17.560Z,997.9
2018-08-22T09:53:37.847Z,997.9
2018-08-22T09:53:58.020Z,997.9
2018-08-22T09:54:18.211Z,997.9
2018-08-22T09:54:38.502Z,997.9
2018-08-22T09:54:58.671Z,997.9
2018-08-22T09:55:18.916Z,997.9
2018-08-22T09:55:39.136Z,997.9
2018-08-22T09:55:59.332Z,997.9
2018-08-22T09:56:19.560Z,997.9
2018-08-22T09:56:39.861Z,997.9
2018-08-22T09:57:00.048Z,997.9
2018-08-22T09:57:20.258Z,997.9
2018-08-22T09:57:40.509Z,997.9
2018-08-22T09:58:00.768Z,997.9
2018-08-22T09:58:21.115Z,997.9
2018-08-22T09:58:41.276Z,997.9
2018-08-22T09:59:01.482Z,997.8
2018-08-22T09:59:21.839Z,997.9
2018-08-22T09:59:42.116Z,997.8
2018-08-22T10:00:02.381Z,997.9
2018-08-22T10:00:22.711Z,997.9
2018-08-22T10:00:43.114Z,997.9
2018-08-22T10:01:03.388Z,997.9
2018-08-22T10:01:24.287Z,997.9
2018-08-22T10:01:44.526Z,997.9
2018-08-22T10:02:04.739Z,997.9
2018-08-22T10:02:26.779Z,997.9
2018-08-22T10:02:47.021Z,997.9
2018-08-22T10:03:07.273Z,997.9
2018-08-22T10:03:27.432Z,997.9
2018-08-22T10:03:47.609Z,997.9
2018-08-22T10:04:07.895Z,997.9
2018-08-22T10:04:28.728Z,997.9
2018-08-22T10:04:48.950Z,997.9
2018-08-22T10:05:09.657Z,997.9
2018-08-22T10:05:29.891Z,997.9
2018-08-22T10:05:50.160Z,997.9
2018-08-22T10:06:10.470Z,997.9
2018-08-22T10:06:30.965Z,997.9
2018-08-22T10:06:52.054Z,997.9
2018-08-22T10:07:12.254Z,997.9
2018-08-22T10:07:32.627Z,997.9
2018-08-22T10:07:54.258Z,997.9
2018-08-22T10:08:14.486Z,997.9
2018-08-22T10:08:34.830Z,997.9
2018-08-22T10:08:54.960Z,997.9
2018-08-22T10:09:15.118Z,997.9
2018-08-22T10:09:35.341Z,997.9
2018-08-22T10:09:55.597Z,997.9
2018-08-22T10:10:15.826Z,997.9
2018-08-22T10:10:36.085Z,997.9
2018-08-22T10:10:56.379Z,997.9
2018-08-22T10:11:16.553Z,997.9
2018-08-22T10:11:36.712Z,997.9
2018-08-22T10:11:56.881Z,997.9
2018-08-22T10:12:17.032Z,997.8
2018-08-22T10:12:37.190Z,997.9
2018-08-22T10:12:57.969Z,997.8
2018-08-22T10:13:18.267Z,997.9
2018-08-22T10:13:38.425Z,997.9
2018-08-22T10:13:58.651Z,997.9
2018-08-22T10:14:18.965Z,997.9
2018-08-22T10:14:39.179Z,997.9
2018-08-22T10:14:59.373Z,997.9
2018-08-22T10:15:19.645Z,997.8
2018-08-22T10:15:39.848Z,997.8
2018-08-22T10:16:00.005Z,997.8
2018-08-22T10:16:20.161Z,997.8
2018-08-22T10:16:40.279Z,997.8
2018-08-22T10:17:00.531Z,997.8
2018-08-22T10:17:20.768Z,997.8
2018-08-22T10:17:41.160Z,997.8
2018-08-22T10:18:01.356Z,997.8
2018-08-22T10:18:21.528Z,997.8
2018-08-22T10:18:42.676Z,997.8
2018-08-22T10:19:02.958Z,997.8
2018-08-22T10:19:23.194Z,997.8
2018-08-22T10:19:43.513Z,997.7
2018-08-22T10:20:03.652Z,997.8
2018-08-22T10:20:24.176Z,997.8
2018-08-22T10:20:44.530Z,997.8
2018-08-22T10:21:04.770Z,997.7
2018-08-22T10:21:25.119Z,997.8
2018-08-22T10:21:45.344Z,997.7
2018-08-22T10:22:05.607Z,997.7
2018-08-22T10:22:25.839Z,997.7
2018-08-22T10:22:46.034Z,997.7
2018-08-22T10:23:06.212Z,997.7
2018-08-22T10:23:26.643Z,997.7
2018-08-22T10:23:46.878Z,997.7
2018-08-22T10:24:07.198Z,997.7
2018-08-22T10:24:27.398Z,997.8